sensor_id;sensor_type;location;lat;lon;timestamp;temperature;humidity
35381;DHT22;21486;51.916;8.378;2023-09-18T00:00:46;19.50;99.90
35381;DHT22;21486;51.916;8.378;2023-09-18T00:03:18;19.50;99.90
35381;DHT22;21486;51.916;8.378;2023-09-18T00:05:50;19.50;99.90
35381;DHT22;21486;51.916;8.378;2023-09-18T00:08:16;19.60;99.90
35381;DHT22;21486;51.916;8.378;2023-09-18T00:10:42;19.60;99.90
35381;DHT22;21486;51.916;8.378;2023-09-18T00:13:12;19.60;99.90
35381;DHT22;21486;51.916;8.378;2023-09-18T00:15:37;19.60;99.90
35381;DHT22;21486;51.916;8.378;2023-09-18T00:18:03;19.70;99.90
35381;DHT22;21486;51.916;8.378;2023-09-18T00:20:33;19.70;99.90
35381;DHT22;21486;51.916;8.378;2023-09-18T00:23:06;19.70;99.90
35381;DHT22;21486;51.916;8.378;2023-09-18T00:25:31;19.70;99.90
35381;DHT22;21486;51.916;8.378;2023-09-18T00:28:07;19.70;99.90
35381;DHT22;21486;51.916;8.378;2023-09-18T00:33:04;19.70;99.90
35381;DHT22;21486;51.916;8.378;2023-09-18T00:35:29;19.70;99.90
35381;DHT22;21486;51.916;8.378;2023-09-18T00:37:55;19.70;99.90
35381;DHT22;21486;51.916;8.378;2023-09-18T00:40:21;19.70;99.90
35381;DHT22;21486;51.916;8.378;2023-09-18T00:42:47;19.70;99.90
35381;DHT22;21486;51.916;8.378;2023-09-18T00:45:13;19.70;99.90
35381;DHT22;21486;51.916;8.378;2023-09-18T00:47:38;19.80;99.90
35381;DHT22;21486;51.916;8.378;2023-09-18T00:50:07;19.80;99.90
35381;DHT22;21486;51.916;8.378;2023-09-18T00:52:34;19.80;99.90
35381;DHT22;21486;51.916;8.378;2023-09-18T00:55:01;19.80;99.90
35381;DHT22;21486;51.916;8.378;2023-09-18T00:57:27;19.70;99.90
35381;DHT22;21486;51.916;8.378;2023-09-18T00:59:53;19.70;99.90
35381;DHT22;21486;51.916;8.378;2023-09-18T01:02:19;19.80;99.90
35381;DHT22;21486;51.916;8.378;2023-09-18T01:04:47;19.70;99.90
35381;DHT22;21486;51.916;8.378;2023-09-18T01:07:13;19.70;99.90
35381;DHT22;21486;51.916;8.378;2023-09-18T01:09:39;19.70;99.90
35381;DHT22;21486;51.916;8.378;2023-09-18T01:15:09;19.60;99.90
35381;DHT22;21486;51.916;8.378;2023-09-18T01:17:36;19.60;99.90
35381;DHT22;21486;51.916;8.378;2023-09-18T01:20:08;19.60;99.90
35381;DHT22;21486;51.916;8.378;2023-09-18T01:22:34;19.60;99.90
35381;DHT22;21486;51.916;8.378;2023-09-18T01:25:00;19.60;99.90
35381;DHT22;21486;51.916;8.378;2023-09-18T01:27:25;19.60;99.90
35381;DHT22;21486;51.916;8.378;2023-09-18T01:29:51;19.60;99.90
35381;DHT22;21486;51.916;8.378;2023-09-18T01:32:19;19.50;99.90
35381;DHT22;21486;51.916;8.378;2023-09-18T01:34:49;19.50;99.90
35381;DHT22;21486;51.916;8.378;2023-09-18T01:37:19;19.60;99.90
35381;DHT22;21486;51.916;8.378;2023-09-18T01:39:48;19.60;99.90
35381;DHT22;21486;51.916;8.378;2023-09-18T01:42:15;19.60;99.90
35381;DHT22;21486;51.916;8.378;2023-09-18T01:44:41;19.60;99.90
35381;DHT22;21486;51.916;8.378;2023-09-18T01:47:19;19.70;99.90
35381;DHT22;21486;51.916;8.378;2023-09-18T01:49:46;19.70;99.90
35381;DHT22;21486;51.916;8.378;2023-09-18T01:52:21;19.80;99.90
35381;DHT22;21486;51.916;8.378;2023-09-18T01:54:48;19.80;99.90
35381;DHT22;21486;51.916;8.378;2023-09-18T01:57:21;19.80;99.90
35381;DHT22;21486;51.916;8.378;2023-09-18T01:59:47;19.70;99.90
35381;DHT22;21486;51.916;8.378;2023-09-18T02:02:13;19.70;99.90
35381;DHT22;21486;51.916;8.378;2023-09-18T02:04:38;19.70;99.90
35381;DHT22;21486;51.916;8.378;2023-09-18T02:07:05;19.70;99.90
35381;DHT22;21486;51.916;8.378;2023-09-18T02:09:31;19.70;99.90
35381;DHT22;21486;51.916;8.378;2023-09-18T02:11:57;19.70;99.90
35381;DHT22;21486;51.916;8.378;2023-09-18T02:14:32;19.70;99.90
35381;DHT22;21486;51.916;8.378;2023-09-18T02:16:58;19.70;99.90
35381;DHT22;21486;51.916;8.378;2023-09-18T02:19:27;19.70;99.90
35381;DHT22;21486;51.916;8.378;2023-09-18T02:21:54;19.70;99.90
35381;DHT22;21486;51.916;8.378;2023-09-18T02:24:21;19.70;99.90
35381;DHT22;21486;51.916;8.378;2023-09-18T02:26:47;19.80;99.90
35381;DHT22;21486;51.916;8.378;2023-09-18T02:29:33;19.80;99.90
35381;DHT22;21486;51.916;8.378;2023-09-18T02:31:59;19.80;99.90
35381;DHT22;21486;51.916;8.378;2023-09-18T02:34:25;19.80;99.90
35381;DHT22;21486;51.916;8.378;2023-09-18T02:36:50;19.80;99.90
35381;DHT22;21486;51.916;8.378;2023-09-18T02:39:16;19.90;99.90
35381;DHT22;21486;51.916;8.378;2023-09-18T02:41:42;19.90;99.90
35381;DHT22;21486;51.916;8.378;2023-09-18T02:44:07;19.90;99.90
35381;DHT22;21486;51.916;8.378;2023-09-18T02:46:33;19.90;99.90
35381;DHT22;21486;51.916;8.378;2023-09-18T02:48:59;19.90;99.90
35381;DHT22;21486;51.916;8.378;2023-09-18T02:51:25;19.90;99.90
35381;DHT22;21486;51.916;8.378;2023-09-18T02:53:51;19.90;99.90
35381;DHT22;21486;51.916;8.378;2023-09-18T02:56:17;20.00;99.90
35381;DHT22;21486;51.916;8.378;2023-09-18T02:58:42;20.00;99.90
35381;DHT22;21486;51.916;8.378;2023-09-18T03:01:08;20.10;99.90
35381;DHT22;21486;51.916;8.378;2023-09-18T03:03:34;20.10;99.90
35381;DHT22;21486;51.916;8.378;2023-09-18T03:06:04;20.10;99.90
35381;DHT22;21486;51.916;8.378;2023-09-18T03:08:30;20.10;99.90
35381;DHT22;21486;51.916;8.378;2023-09-18T03:10:57;20.10;99.90
35381;DHT22;21486;51.916;8.378;2023-09-18T03:13:23;20.10;99.90
35381;DHT22;21486;51.916;8.378;2023-09-18T03:15:48;20.10;99.90
35381;DHT22;21486;51.916;8.378;2023-09-18T03:18:23;20.10;99.90
35381;DHT22;21486;51.916;8.378;2023-09-18T03:20:48;20.10;99.90
35381;DHT22;21486;51.916;8.378;2023-09-18T03:23:21;20.10;99.90
35381;DHT22;21486;51.916;8.378;2023-09-18T03:25:47;20.10;99.90
35381;DHT22;21486;51.916;8.378;2023-09-18T03:28:13;20.10;99.90
35381;DHT22;21486;51.916;8.378;2023-09-18T03:30:38;20.10;99.90
35381;DHT22;21486;51.916;8.378;2023-09-18T03:33:04;20.20;99.90
35381;DHT22;21486;51.916;8.378;2023-09-18T03:35:31;20.20;99.90
35381;DHT22;21486;51.916;8.378;2023-09-18T03:38:18;20.20;99.90
35381;DHT22;21486;51.916;8.378;2023-09-18T03:43:28;20.20;99.90
35381;DHT22;21486;51.916;8.378;2023-09-18T03:45:54;20.10;99.90
35381;DHT22;21486;51.916;8.378;2023-09-18T03:48:20;20.10;99.90
35381;DHT22;21486;51.916;8.378;2023-09-18T03:50:51;20.10;99.90
35381;DHT22;21486;51.916;8.378;2023-09-18T03:53:17;20.10;99.90
35381;DHT22;21486;51.916;8.378;2023-09-18T03:55:43;20.20;99.90
35381;DHT22;21486;51.916;8.378;2023-09-18T03:58:09;20.20;99.90
35381;DHT22;21486;51.916;8.378;2023-09-18T04:00:35;20.20;99.90
35381;DHT22;21486;51.916;8.378;2023-09-18T04:03:01;20.20;99.90
35381;DHT22;21486;51.916;8.378;2023-09-18T04:05:44;20.20;99.90
35381;DHT22;21486;51.916;8.378;2023-09-18T04:08:18;20.20;99.90
35381;DHT22;21486;51.916;8.378;2023-09-18T04:10:44;20.20;99.90
35381;DHT22;21486;51.916;8.378;2023-09-18T04:13:10;20.30;99.90
35381;DHT22;21486;51.916;8.378;2023-09-18T04:15:37;20.30;99.90
35381;DHT22;21486;51.916;8.378;2023-09-18T04:18:04;20.20;99.90
35381;DHT22;21486;51.916;8.378;2023-09-18T04:20:30;20.20;99.90
35381;DHT22;21486;51.916;8.378;2023-09-18T04:25:44;20.20;99.90
35381;DHT22;21486;51.916;8.378;2023-09-18T04:28:09;20.30;99.90
35381;DHT22;21486;51.916;8.378;2023-09-18T04:30:35;20.40;99.90
35381;DHT22;21486;51.916;8.378;2023-09-18T04:33:01;20.40;99.90
35381;DHT22;21486;51.916;8.378;2023-09-18T04:35:26;20.30;99.90
35381;DHT22;21486;51.916;8.378;2023-09-18T04:37:55;20.40;99.90
35381;DHT22;21486;51.916;8.378;2023-09-18T04:40:22;20.50;99.90
35381;DHT22;21486;51.916;8.378;2023-09-18T04:42:49;20.50;99.90
35381;DHT22;21486;51.916;8.378;2023-09-18T04:45:15;20.70;99.90
35381;DHT22;21486;51.916;8.378;2023-09-18T04:47:41;20.60;99.90
35381;DHT22;21486;51.916;8.378;2023-09-18T04:50:07;20.50;99.90
35381;DHT22;21486;51.916;8.378;2023-09-18T04:52:38;20.60;99.90
35381;DHT22;21486;51.916;8.378;2023-09-18T04:55:06;20.60;99.90
35381;DHT22;21486;51.916;8.378;2023-09-18T04:57:31;20.60;99.90
35381;DHT22;21486;51.916;8.378;2023-09-18T04:59:57;20.60;99.90
35381;DHT22;21486;51.916;8.378;2023-09-18T05:02:23;20.60;99.90
35381;DHT22;21486;51.916;8.378;2023-09-18T05:04:50;20.60;99.90
35381;DHT22;21486;51.916;8.378;2023-09-18T05:07:16;20.60;99.90
35381;DHT22;21486;51.916;8.378;2023-09-18T05:09:41;20.60;99.90
35381;DHT22;21486;51.916;8.378;2023-09-18T05:12:09;20.60;99.90
35381;DHT22;21486;51.916;8.378;2023-09-18T05:14:42;20.60;99.90
35381;DHT22;21486;51.916;8.378;2023-09-18T05:17:15;20.60;99.90
35381;DHT22;21486;51.916;8.378;2023-09-18T05:19:42;20.50;99.90
35381;DHT22;21486;51.916;8.378;2023-09-18T05:22:11;20.50;99.90
35381;DHT22;21486;51.916;8.378;2023-09-18T05:24:38;20.40;99.90
35381;DHT22;21486;51.916;8.378;2023-09-18T05:27:04;20.40;99.90
35381;DHT22;21486;51.916;8.378;2023-09-18T05:29:31;20.40;99.90
35381;DHT22;21486;51.916;8.378;2023-09-18T05:31:57;20.40;99.90
35381;DHT22;21486;51.916;8.378;2023-09-18T05:34:23;20.40;99.90
35381;DHT22;21486;51.916;8.378;2023-09-18T05:36:48;20.50;99.90
35381;DHT22;21486;51.916;8.378;2023-09-18T05:39:14;20.50;99.90
35381;DHT22;21486;51.916;8.378;2023-09-18T05:41:39;20.60;99.90
35381;DHT22;21486;51.916;8.378;2023-09-18T05:44:05;20.60;99.90
35381;DHT22;21486;51.916;8.378;2023-09-18T05:46:34;20.70;99.90
35381;DHT22;21486;51.916;8.378;2023-09-18T05:49:00;20.80;99.90
35381;DHT22;21486;51.916;8.378;2023-09-18T05:51:26;20.70;99.90
35381;DHT22;21486;51.916;8.378;2023-09-18T05:53:52;20.70;99.90
35381;DHT22;21486;51.916;8.378;2023-09-18T05:56:18;20.70;99.90
35381;DHT22;21486;51.916;8.378;2023-09-18T05:58:43;20.70;99.90
35381;DHT22;21486;51.916;8.378;2023-09-18T06:01:09;20.80;99.90
35381;DHT22;21486;51.916;8.378;2023-09-18T06:03:35;20.80;99.90
35381;DHT22;21486;51.916;8.378;2023-09-18T06:06:10;20.80;99.90
35381;DHT22;21486;51.916;8.378;2023-09-18T06:08:36;20.80;99.90
35381;DHT22;21486;51.916;8.378;2023-09-18T06:11:01;20.80;99.90
35381;DHT22;21486;51.916;8.378;2023-09-18T06:13:27;20.80;99.90
35381;DHT22;21486;51.916;8.378;2023-09-18T06:15:54;20.80;99.90
35381;DHT22;21486;51.916;8.378;2023-09-18T06:18:21;20.80;99.90
35381;DHT22;21486;51.916;8.378;2023-09-18T06:20:47;20.80;99.90
35381;DHT22;21486;51.916;8.378;2023-09-18T06:23:13;20.80;99.90
35381;DHT22;21486;51.916;8.378;2023-09-18T06:25:39;20.90;99.90
35381;DHT22;21486;51.916;8.378;2023-09-18T06:28:05;20.90;99.90
35381;DHT22;21486;51.916;8.378;2023-09-18T06:30:31;20.90;99.90
35381;DHT22;21486;51.916;8.378;2023-09-18T06:32:58;20.90;99.90
35381;DHT22;21486;51.916;8.378;2023-09-18T06:35:24;20.90;99.90
35381;DHT22;21486;51.916;8.378;2023-09-18T06:37:49;21.00;99.90
35381;DHT22;21486;51.916;8.378;2023-09-18T06:40:15;21.00;99.90
35381;DHT22;21486;51.916;8.378;2023-09-18T06:42:40;21.10;99.90
35381;DHT22;21486;51.916;8.378;2023-09-18T06:45:07;21.10;99.90
35381;DHT22;21486;51.916;8.378;2023-09-18T06:47:33;21.20;99.90
35381;DHT22;21486;51.916;8.378;2023-09-18T06:49:59;21.40;99.90
35381;DHT22;21486;51.916;8.378;2023-09-18T06:52:26;21.50;99.90
35381;DHT22;21486;51.916;8.378;2023-09-18T06:54:52;21.60;99.90
35381;DHT22;21486;51.916;8.378;2023-09-18T06:57:18;21.60;99.90
35381;DHT22;21486;51.916;8.378;2023-09-18T06:59:43;21.70;99.90
35381;DHT22;21486;51.916;8.378;2023-09-18T07:02:09;21.80;99.90
35381;DHT22;21486;51.916;8.378;2023-09-18T07:04:35;21.80;99.90
35381;DHT22;21486;51.916;8.378;2023-09-18T07:07:01;21.90;99.90
35381;DHT22;21486;51.916;8.378;2023-09-18T07:09:26;21.90;99.90
35381;DHT22;21486;51.916;8.378;2023-09-18T07:11:52;22.00;99.90
35381;DHT22;21486;51.916;8.378;2023-09-18T07:14:17;22.10;99.90
35381;DHT22;21486;51.916;8.378;2023-09-18T07:16:43;22.20;99.90
35381;DHT22;21486;51.916;8.378;2023-09-18T07:19:09;22.30;99.90
35381;DHT22;21486;51.916;8.378;2023-09-18T07:21:37;22.40;99.90
35381;DHT22;21486;51.916;8.378;2023-09-18T07:24:04;22.40;99.90
35381;DHT22;21486;51.916;8.378;2023-09-18T07:26:29;22.40;99.90
35381;DHT22;21486;51.916;8.378;2023-09-18T07:28:55;22.50;99.90
35381;DHT22;21486;51.916;8.378;2023-09-18T07:31:20;22.50;99.90
35381;DHT22;21486;51.916;8.378;2023-09-18T07:33:46;22.70;99.90
35381;DHT22;21486;51.916;8.378;2023-09-18T07:36:11;22.80;99.90
35381;DHT22;21486;51.916;8.378;2023-09-18T07:38:37;23.00;99.90
35381;DHT22;21486;51.916;8.378;2023-09-18T07:41:03;23.10;99.90
35381;DHT22;21486;51.916;8.378;2023-09-18T07:43:28;23.00;99.90
35381;DHT22;21486;51.916;8.378;2023-09-18T07:45:54;23.10;99.90
35381;DHT22;21486;51.916;8.378;2023-09-18T07:48:21;23.20;99.90
35381;DHT22;21486;51.916;8.378;2023-09-18T07:50:47;23.20;99.90
35381;DHT22;21486;51.916;8.378;2023-09-18T07:53:14;23.30;99.90
35381;DHT22;21486;51.916;8.378;2023-09-18T07:55:40;23.30;99.90
35381;DHT22;21486;51.916;8.378;2023-09-18T07:58:06;23.30;99.90
35381;DHT22;21486;51.916;8.378;2023-09-18T08:00:31;23.30;99.90
35381;DHT22;21486;51.916;8.378;2023-09-18T08:02:58;23.00;99.90
35381;DHT22;21486;51.916;8.378;2023-09-18T08:05:29;22.90;99.90
35381;DHT22;21486;51.916;8.378;2023-09-18T08:07:55;22.80;99.90
35381;DHT22;21486;51.916;8.378;2023-09-18T08:10:22;22.50;99.90
35381;DHT22;21486;51.916;8.378;2023-09-18T08:12:48;22.60;99.90
35381;DHT22;21486;51.916;8.378;2023-09-18T08:15:15;22.40;99.90
35381;DHT22;21486;51.916;8.378;2023-09-18T08:17:40;22.40;99.90
35381;DHT22;21486;51.916;8.378;2023-09-18T08:20:08;22.40;99.90
35381;DHT22;21486;51.916;8.378;2023-09-18T08:22:39;22.40;99.90
35381;DHT22;21486;51.916;8.378;2023-09-18T08:25:06;22.30;99.90
35381;DHT22;21486;51.916;8.378;2023-09-18T08:27:33;22.30;99.90
35381;DHT22;21486;51.916;8.378;2023-09-18T08:29:59;22.30;99.90
35381;DHT22;21486;51.916;8.378;2023-09-18T08:32:24;22.30;99.90
35381;DHT22;21486;51.916;8.378;2023-09-18T08:34:50;22.30;99.90
35381;DHT22;21486;51.916;8.378;2023-09-18T08:37:15;22.20;99.90
35381;DHT22;21486;51.916;8.378;2023-09-18T08:39:41;22.30;99.90
35381;DHT22;21486;51.916;8.378;2023-09-18T08:42:07;22.20;99.90
35381;DHT22;21486;51.916;8.378;2023-09-18T08:44:38;22.10;99.90
35381;DHT22;21486;51.916;8.378;2023-09-18T08:47:05;22.10;99.90
35381;DHT22;21486;51.916;8.378;2023-09-18T08:49:31;22.10;99.90
35381;DHT22;21486;51.916;8.378;2023-09-18T08:51:59;22.20;99.90
35381;DHT22;21486;51.916;8.378;2023-09-18T08:54:25;22.30;99.90
35381;DHT22;21486;51.916;8.378;2023-09-18T08:56:54;22.40;99.90
35381;DHT22;21486;51.916;8.378;2023-09-18T08:59:21;22.50;99.90
35381;DHT22;21486;51.916;8.378;2023-09-18T09:01:50;22.50;99.90
35381;DHT22;21486;51.916;8.378;2023-09-18T09:04:15;22.50;99.90
35381;DHT22;21486;51.916;8.378;2023-09-18T09:06:41;22.60;99.90
35381;DHT22;21486;51.916;8.378;2023-09-18T09:09:06;22.60;99.90
35381;DHT22;21486;51.916;8.378;2023-09-18T09:11:33;22.50;99.90
35381;DHT22;21486;51.916;8.378;2023-09-18T09:14:13;22.60;99.90
35381;DHT22;21486;51.916;8.378;2023-09-18T09:16:48;22.60;99.90
35381;DHT22;21486;51.916;8.378;2023-09-18T09:19:15;22.50;99.90
35381;DHT22;21486;51.916;8.378;2023-09-18T09:21:42;22.70;99.90
35381;DHT22;21486;51.916;8.378;2023-09-18T09:24:10;22.80;99.90
35381;DHT22;21486;51.916;8.378;2023-09-18T09:26:43;22.90;99.90
35381;DHT22;21486;51.916;8.378;2023-09-18T09:29:17;23.00;99.90
35381;DHT22;21486;51.916;8.378;2023-09-18T09:31:44;22.80;99.90
35381;DHT22;21486;51.916;8.378;2023-09-18T09:34:10;22.80;99.90
35381;DHT22;21486;51.916;8.378;2023-09-18T09:36:36;22.80;99.90
35381;DHT22;21486;51.916;8.378;2023-09-18T09:39:02;22.80;99.90
35381;DHT22;21486;51.916;8.378;2023-09-18T09:41:31;22.80;99.90
35381;DHT22;21486;51.916;8.378;2023-09-18T09:43:57;22.80;99.90
35381;DHT22;21486;51.916;8.378;2023-09-18T09:46:23;22.60;99.90
35381;DHT22;21486;51.916;8.378;2023-09-18T09:48:59;22.50;99.90
35381;DHT22;21486;51.916;8.378;2023-09-18T09:51:24;22.50;99.90
35381;DHT22;21486;51.916;8.378;2023-09-18T09:53:50;22.40;99.90
35381;DHT22;21486;51.916;8.378;2023-09-18T09:56:17;22.30;99.90
35381;DHT22;21486;51.916;8.378;2023-09-18T09:59:04;22.20;99.90
35381;DHT22;21486;51.916;8.378;2023-09-18T10:01:34;22.20;99.90
35381;DHT22;21486;51.916;8.378;2023-09-18T10:04:05;22.30;99.90
35381;DHT22;21486;51.916;8.378;2023-09-18T10:06:35;22.40;99.90
35381;DHT22;21486;51.916;8.378;2023-09-18T10:09:03;22.50;99.90
35381;DHT22;21486;51.916;8.378;2023-09-18T10:11:31;22.70;99.90
35381;DHT22;21486;51.916;8.378;2023-09-18T10:14:09;22.80;99.90
35381;DHT22;21486;51.916;8.378;2023-09-18T10:16:40;23.10;99.90
35381;DHT22;21486;51.916;8.378;2023-09-18T10:21:41;23.10;99.90
35381;DHT22;21486;51.916;8.378;2023-09-18T10:24:24;23.30;99.90
35381;DHT22;21486;51.916;8.378;2023-09-18T10:26:58;23.30;99.90
35381;DHT22;21486;51.916;8.378;2023-09-18T10:29:24;23.20;99.90
35381;DHT22;21486;51.916;8.378;2023-09-18T10:31:54;23.20;99.90
35381;DHT22;21486;51.916;8.378;2023-09-18T10:34:21;23.20;99.90
35381;DHT22;21486;51.916;8.378;2023-09-18T10:36:48;23.30;99.90
35381;DHT22;21486;51.916;8.378;2023-09-18T10:39:14;23.10;99.90
35381;DHT22;21486;51.916;8.378;2023-09-18T10:41:55;23.10;99.90
35381;DHT22;21486;51.916;8.378;2023-09-18T10:44:23;23.10;99.90
35381;DHT22;21486;51.916;8.378;2023-09-18T10:46:50;23.30;99.90
35381;DHT22;21486;51.916;8.378;2023-09-18T10:49:18;23.50;99.90
35381;DHT22;21486;51.916;8.378;2023-09-18T10:51:46;23.40;99.90
35381;DHT22;21486;51.916;8.378;2023-09-18T10:54:17;23.40;99.90
35381;DHT22;21486;51.916;8.378;2023-09-18T10:56:45;23.20;99.90
35381;DHT22;21486;51.916;8.378;2023-09-18T10:59:11;23.30;99.90
35381;DHT22;21486;51.916;8.378;2023-09-18T11:01:37;23.20;99.90
35381;DHT22;21486;51.916;8.378;2023-09-18T11:04:05;23.10;99.90
35381;DHT22;21486;51.916;8.378;2023-09-18T11:09:27;23.20;99.90
35381;DHT22;21486;51.916;8.378;2023-09-18T11:14:23;23.00;99.90
35381;DHT22;21486;51.916;8.378;2023-09-18T11:17:06;22.90;99.90
35381;DHT22;21486;51.916;8.378;2023-09-18T11:19:31;23.00;99.90
35381;DHT22;21486;51.916;8.378;2023-09-18T11:22:09;23.10;99.90
35381;DHT22;21486;51.916;8.378;2023-09-18T11:24:35;23.10;99.90
35381;DHT22;21486;51.916;8.378;2023-09-18T11:27:01;23.20;99.90
35381;DHT22;21486;51.916;8.378;2023-09-18T11:29:26;23.20;99.90
35381;DHT22;21486;51.916;8.378;2023-09-18T11:31:55;23.70;99.90
35381;DHT22;21486;51.916;8.378;2023-09-18T11:34:28;24.40;99.90
35381;DHT22;21486;51.916;8.378;2023-09-18T11:36:58;25.20;99.90
35381;DHT22;21486;51.916;8.378;2023-09-18T11:42:20;26.20;99.90
35381;DHT22;21486;51.916;8.378;2023-09-18T11:44:48;26.40;99.90
35381;DHT22;21486;51.916;8.378;2023-09-18T11:47:16;26.40;99.90
35381;DHT22;21486;51.916;8.378;2023-09-18T11:50:04;26.80;99.40
35381;DHT22;21486;51.916;8.378;2023-09-18T11:52:40;27.10;99.00
35381;DHT22;21486;51.916;8.378;2023-09-18T11:55:09;27.50;98.20
35381;DHT22;21486;51.916;8.378;2023-09-18T11:58:02;27.40;97.80
35381;DHT22;21486;51.916;8.378;2023-09-18T12:00:29;27.50;96.50
35381;DHT22;21486;51.916;8.378;2023-09-18T12:02:55;27.30;96.90
35381;DHT22;21486;51.916;8.378;2023-09-18T12:05:21;26.70;96.20
35381;DHT22;21486;51.916;8.378;2023-09-18T12:07:51;26.40;96.40
35381;DHT22;21486;51.916;8.378;2023-09-18T12:10:19;26.30;96.20
35381;DHT22;21486;51.916;8.378;2023-09-18T12:12:46;25.80;96.50
35381;DHT22;21486;51.916;8.378;2023-09-18T12:15:13;25.80;96.90
35381;DHT22;21486;51.916;8.378;2023-09-18T12:17:40;25.40;97.20
35381;DHT22;21486;51.916;8.378;2023-09-18T12:20:06;25.00;98.00
35381;DHT22;21486;51.916;8.378;2023-09-18T12:22:32;24.70;98.90
35381;DHT22;21486;51.916;8.378;2023-09-18T12:25:14;24.60;99.90
35381;DHT22;21486;51.916;8.378;2023-09-18T12:27:40;24.70;98.70
35381;DHT22;21486;51.916;8.378;2023-09-18T12:30:07;24.60;99.10
35381;DHT22;21486;51.916;8.378;2023-09-18T12:32:37;24.60;99.60
35381;DHT22;21486;51.916;8.378;2023-09-18T12:35:03;24.40;98.70
35381;DHT22;21486;51.916;8.378;2023-09-18T12:37:32;24.40;99.00
35381;DHT22;21486;51.916;8.378;2023-09-18T12:39:57;24.30;99.70
35381;DHT22;21486;51.916;8.378;2023-09-18T12:42:23;24.30;99.80
35381;DHT22;21486;51.916;8.378;2023-09-18T12:44:49;24.30;99.90
35381;DHT22;21486;51.916;8.378;2023-09-18T12:47:16;24.50;99.70
35381;DHT22;21486;51.916;8.378;2023-09-18T12:49:42;24.80;99.50
35381;DHT22;21486;51.916;8.378;2023-09-18T12:52:07;25.20;99.50
35381;DHT22;21486;51.916;8.378;2023-09-18T12:54:37;25.70;99.20
35381;DHT22;21486;51.916;8.378;2023-09-18T12:57:05;26.20;96.90
35381;DHT22;21486;51.916;8.378;2023-09-18T12:59:32;26.60;96.80
35381;DHT22;21486;51.916;8.378;2023-09-18T13:01:58;26.80;96.90
35381;DHT22;21486;51.916;8.378;2023-09-18T13:04:24;26.80;97.20
35381;DHT22;21486;51.916;8.378;2023-09-18T13:07:23;26.60;96.20
35381;DHT22;21486;51.916;8.378;2023-09-18T13:10:03;26.00;96.20
35381;DHT22;21486;51.916;8.378;2023-09-18T13:12:48;25.60;97.10
35381;DHT22;21486;51.916;8.378;2023-09-18T13:15:27;25.60;97.30
35381;DHT22;21486;51.916;8.378;2023-09-18T13:17:53;25.40;98.30
35381;DHT22;21486;51.916;8.378;2023-09-18T13:20:24;25.10;97.70
35381;DHT22;21486;51.916;8.378;2023-09-18T13:22:52;25.00;98.40
35381;DHT22;21486;51.916;8.378;2023-09-18T13:25:28;25.00;99.20
35381;DHT22;21486;51.916;8.378;2023-09-18T13:27:54;25.00;98.40
35381;DHT22;21486;51.916;8.378;2023-09-18T13:30:20;25.30;97.70
35381;DHT22;21486;51.916;8.378;2023-09-18T13:32:48;25.20;97.60
35381;DHT22;21486;51.916;8.378;2023-09-18T13:35:15;25.30;98.10
35381;DHT22;21486;51.916;8.378;2023-09-18T13:37:41;25.20;98.70
35381;DHT22;21486;51.916;8.378;2023-09-18T13:40:08;25.20;98.30
35381;DHT22;21486;51.916;8.378;2023-09-18T13:42:35;25.10;98.80
35381;DHT22;21486;51.916;8.378;2023-09-18T13:45:01;25.30;99.20
35381;DHT22;21486;51.916;8.378;2023-09-18T13:47:28;25.20;98.90
35381;DHT22;21486;51.916;8.378;2023-09-18T13:49:54;25.10;98.60
35381;DHT22;21486;51.916;8.378;2023-09-18T13:52:29;25.20;98.40
35381;DHT22;21486;51.916;8.378;2023-09-18T13:54:54;24.90;98.50
35381;DHT22;21486;51.916;8.378;2023-09-18T13:57:20;24.80;98.70
35381;DHT22;21486;51.916;8.378;2023-09-18T13:59:46;24.50;99.30
35381;DHT22;21486;51.916;8.378;2023-09-18T14:02:12;24.40;99.70
35381;DHT22;21486;51.916;8.378;2023-09-18T14:04:38;24.30;99.90
35381;DHT22;21486;51.916;8.378;2023-09-18T14:07:07;24.30;99.90
35381;DHT22;21486;51.916;8.378;2023-09-18T14:09:33;24.30;99.90
35381;DHT22;21486;51.916;8.378;2023-09-18T14:11:59;24.20;99.90
35381;DHT22;21486;51.916;8.378;2023-09-18T14:14:24;24.10;99.90
35381;DHT22;21486;51.916;8.378;2023-09-18T14:16:50;24.00;99.90
35381;DHT22;21486;51.916;8.378;2023-09-18T14:19:23;23.80;99.90
35381;DHT22;21486;51.916;8.378;2023-09-18T14:21:49;23.80;99.90
35381;DHT22;21486;51.916;8.378;2023-09-18T14:24:15;23.70;99.90
35381;DHT22;21486;51.916;8.378;2023-09-18T14:26:40;23.70;99.90
35381;DHT22;21486;51.916;8.378;2023-09-18T14:29:10;23.60;99.90
35381;DHT22;21486;51.916;8.378;2023-09-18T14:31:38;23.20;99.90
35381;DHT22;21486;51.916;8.378;2023-09-18T14:34:04;22.70;99.90
35381;DHT22;21486;51.916;8.378;2023-09-18T14:36:33;21.80;99.90
35381;DHT22;21486;51.916;8.378;2023-09-18T14:39:02;20.90;99.90
35381;DHT22;21486;51.916;8.378;2023-09-18T14:41:28;20.50;99.90
35381;DHT22;21486;51.916;8.378;2023-09-18T14:43:54;20.30;99.90
35381;DHT22;21486;51.916;8.378;2023-09-18T14:46:20;20.20;99.90
35381;DHT22;21486;51.916;8.378;2023-09-18T14:48:46;20.30;99.90
35381;DHT22;21486;51.916;8.378;2023-09-18T14:51:11;20.50;99.90
35381;DHT22;21486;51.916;8.378;2023-09-18T14:53:37;20.50;99.90
35381;DHT22;21486;51.916;8.378;2023-09-18T14:56:03;20.60;99.90
35381;DHT22;21486;51.916;8.378;2023-09-18T14:58:29;20.70;99.90
35381;DHT22;21486;51.916;8.378;2023-09-18T15:00:56;20.80;99.90
35381;DHT22;21486;51.916;8.378;2023-09-18T15:03:25;21.00;99.90
35381;DHT22;21486;51.916;8.378;2023-09-18T15:05:51;21.10;99.90
35381;DHT22;21486;51.916;8.378;2023-09-18T15:08:17;21.30;99.90
35381;DHT22;21486;51.916;8.378;2023-09-18T15:10:47;21.40;99.90
35381;DHT22;21486;51.916;8.378;2023-09-18T15:13:13;21.60;99.90
35381;DHT22;21486;51.916;8.378;2023-09-18T15:15:39;21.70;99.90
35381;DHT22;21486;51.916;8.378;2023-09-18T15:18:05;21.70;99.90
35381;DHT22;21486;51.916;8.378;2023-09-18T15:20:31;21.80;99.90
35381;DHT22;21486;51.916;8.378;2023-09-18T15:22:57;21.90;99.90
35381;DHT22;21486;51.916;8.378;2023-09-18T15:25:23;21.90;99.90
35381;DHT22;21486;51.916;8.378;2023-09-18T15:27:48;22.00;99.90
35381;DHT22;21486;51.916;8.378;2023-09-18T15:30:14;22.10;99.90
35381;DHT22;21486;51.916;8.378;2023-09-18T15:32:53;22.10;99.90
35381;DHT22;21486;51.916;8.378;2023-09-18T15:35:22;22.20;99.90
35381;DHT22;21486;51.916;8.378;2023-09-18T15:37:53;22.00;99.90
35381;DHT22;21486;51.916;8.378;2023-09-18T15:40:19;21.90;99.90
35381;DHT22;21486;51.916;8.378;2023-09-18T15:42:48;21.90;99.90
35381;DHT22;21486;51.916;8.378;2023-09-18T15:45:14;21.80;99.90
35381;DHT22;21486;51.916;8.378;2023-09-18T15:47:43;21.70;99.90
35381;DHT22;21486;51.916;8.378;2023-09-18T15:50:10;21.70;99.90
35381;DHT22;21486;51.916;8.378;2023-09-18T15:52:36;21.70;99.90
35381;DHT22;21486;51.916;8.378;2023-09-18T15:55:03;21.70;99.90